Time;durP1;ratioP1;P1;durP2;ratioP2;P2;SDS_P1;SDS_P2;PMS_P1;PMS_P2;Temp;Humidity;BMP_temperature;BMP_pressure;BME280_temperature;BME280_humidity;BME280_pressure;Samples;Min_cycle;Max_cycle;Signal;HPM_P1;HPM_P2
2023/03/26 00:01:15;;;;;;;1999.90;999.90;;;7.20;99.90;;;;;;5017212;28;20081;-74
2023/03/26 00:03:45;;;;;;;1999.90;999.90;;;7.20;99.90;;;;;;5016832;28;20041;-74
2023/03/26 00:06:16;;;;;;;1999.90;999.90;;;7.10;99.90;;;;;;5016695;28;20061;-74
2023/03/26 00:08:43;;;;;;;1999.90;999.90;;;7.20;99.90;;;;;;5031883;28;20510;-74
2023/03/26 00:11:11;;;;;;;1999.90;999.90;;;7.10;99.90;;;;;;5036914;28;20484;-74
2023/03/26 00:13:37;;;;;;;1999.90;999.90;;;7.10;99.90;;;;;;5036571;28;20161;-74
2023/03/26 00:16:03;;;;;;;1999.90;999.90;;;7.10;99.90;;;;;;5036061;28;20034;-74
2023/03/26 00:18:30;;;;;;;1999.90;999.90;;;7.10;99.90;;;;;;5021401;28;20038;-74
2023/03/26 00:21:00;;;;;;;1999.90;999.90;;;7.10;99.90;;;;;;5016972;28;20034;-74
2023/03/26 00:23:27;;;;;;;1999.90;999.90;;;7.20;99.90;;;;;;5015172;28;20038;-74
2023/03/26 00:25:54;;;;;;;1999.90;999.90;;;7.20;99.90;;;;;;5016178;28;20480;-74
2023/03/26 00:28:21;;;;;;;1999.90;999.90;;;7.20;99.90;;;;;;5015243;28;20041;-74
2023/03/26 00:30:48;;;;;;;1999.90;999.90;;;7.20;99.90;;;;;;5033229;28;20041;-74
2023/03/26 00:33:16;;;;;;;1999.90;999.90;;;7.20;99.90;;;;;;5036463;28;20096;-74
2023/03/26 00:35:45;;;;;;;1999.90;999.90;;;7.20;99.90;;;;;;5003060;28;20065;-74
2023/03/26 00:38:13;;;;;;;1999.90;999.90;;;7.20;99.90;;;;;;5015454;28;20089;-74
2023/03/26 00:40:43;;;;;;;1999.90;999.90;;;7.20;99.90;;;;;;5016393;28;20129;-74
2023/03/26 00:43:17;;;;;;;1999.90;999.90;;;7.10;99.90;;;;;;5029262;28;20122;-74
2023/03/26 00:45:45;;;;;;;1999.90;999.90;;;7.20;99.90;;;;;;5036140;28;20030;-74
2023/03/26 00:48:11;;;;;;;1999.90;999.90;;;7.10;99.90;;;;;;5035990;28;20037;-74
2023/03/26 00:50:37;;;;;;;1999.90;999.90;;;7.10;99.90;;;;;;5034338;28;20041;-74
2023/03/26 00:53:02;;;;;;;1999.90;999.90;;;7.10;99.90;;;;;;5023854;28;20034;-74
2023/03/26 00:55:28;;;;;;;1999.90;999.90;;;7.00;99.90;;;;;;5015538;28;20395;-74
2023/03/26 00:57:54;;;;;;;1999.90;999.90;;;6.90;99.90;;;;;;5016475;28;20030;-74
2023/03/26 01:00:28;;;;;;;1999.90;999.90;;;6.80;99.90;;;;;;5016139;28;20053;-74
2023/03/26 01:02:54;;;;;;;1999.90;999.90;;;6.80;99.90;;;;;;5016209;28;20527;-74
2023/03/26 01:05:34;;;;;;;1999.90;999.90;;;6.60;99.90;;;;;;5030220;28;20180;-74
2023/03/26 01:08:14;;;;;;;1999.90;999.90;;;6.50;99.90;;;;;;5035921;28;20558;-74
2023/03/26 01:10:40;;;;;;;1999.90;999.90;;;6.40;99.90;;;;;;5038456;28;20038;-74
2023/03/26 01:13:07;;;;;;;1999.90;999.90;;;6.40;99.90;;;;;;5041855;28;20483;-74
2023/03/26 01:15:36;;;;;;;1999.90;999.90;;;6.40;99.90;;;;;;5037981;28;20041;-73
2023/03/26 01:18:08;;;;;;;1999.90;999.90;;;6.50;99.90;;;;;;5037681;28;20086;-74
2023/03/26 01:20:45;;;;;;;1999.90;999.90;;;6.40;99.90;;;;;;5037278;28;20491;-75
2023/03/26 01:23:14;;;;;;;1999.90;999.90;;;6.30;99.90;;;;;;5037882;28;20049;-74
2023/03/26 01:25:47;;;;;;;1999.90;999.90;;;6.30;99.90;;;;;;5037478;28;20026;-74
2023/03/26 01:28:16;;;;;;;1999.90;999.90;;;6.20;99.90;;;;;;5038246;28;20030;-74
2023/03/26 01:31:00;;;;;;;1999.90;999.90;;;6.10;99.90;;;;;;5036713;28;20045;-75
2023/03/26 01:33:42;;;;;;;1999.90;999.90;;;6.10;99.90;;;;;;5038161;28;20033;-74
2023/03/26 01:36:24;;;;;;;1999.90;999.90;;;6.10;99.90;;;;;;5038971;22;20562;-75
2023/03/26 01:39:37;;;;;;;1999.90;999.90;;;6.20;99.90;;;;;;5015604;28;20045;-74
2023/03/26 01:42:12;;;;;;;1999.90;999.90;;;6.00;99.90;;;;;;5010698;28;20462;-74
2023/03/26 01:44:51;;;;;;;1999.90;999.90;;;6.00;99.90;;;;;;5015400;28;20526;-76
2023/03/26 01:47:18;;;;;;;1999.90;999.90;;;6.00;99.90;;;;;;5015175;28;20476;-76
2023/03/26 01:49:43;;;;;;;1999.90;999.90;;;5.90;99.90;;;;;;5021136;28;20038;-76
2023/03/26 01:52:16;;;;;;;1999.90;999.90;;;5.90;99.90;;;;;;5034596;28;20030;-76
2023/03/26 01:54:45;;;;;;;1999.90;999.90;;;5.90;99.90;;;;;;5033071;28;20037;-76
2023/03/26 01:57:34;;;;;;;1999.90;999.90;;;6.00;99.90;;;;;;5033706;28;20471;-75
2023/03/26 02:00:10;;;;;;;1999.90;999.90;;;5.90;99.90;;;;;;5025029;28;20047;-76
2023/03/26 02:02:44;;;;;;;1999.90;999.90;;;5.90;99.90;;;;;;5026429;28;20032;-76
2023/03/26 02:05:28;;;;;;;1999.90;999.90;;;6.00;99.90;;;;;;5034495;28;20455;-73
2023/03/26 02:08:34;;;;;;;1999.90;999.90;;;6.00;99.90;;;;;;5035226;28;20045;-73
2023/03/26 02:11:04;;;;;;;1999.90;999.90;;;6.10;99.90;;;;;;5032969;28;20037;-74
2023/03/26 02:13:30;;;;;;;1999.90;999.90;;;6.10;99.90;;;;;;5034950;28;20042;-73
2023/03/26 02:16:01;;;;;;;1999.90;999.90;;;6.20;99.90;;;;;;5034247;28;20034;-73
2023/03/26 02:18:35;;;;;;;1999.90;999.90;;;6.30;99.90;;;;;;5034072;28;20040;-73
2023/03/26 02:21:18;;;;;;;1999.90;999.90;;;6.40;99.90;;;;;;5032163;28;20494;-74
2023/03/26 02:23:45;;;;;;;1999.90;999.90;;;6.50;99.90;;;;;;5034864;28;20396;-73
2023/03/26 02:26:13;;;;;;;1999.90;999.90;;;6.50;99.90;;;;;;5034149;28;20400;-74
2023/03/26 02:28:39;;;;;;;1999.90;999.90;;;6.50;99.90;;;;;;5034644;28;20467;-74
2023/03/26 02:31:05;;;;;;;1999.90;999.90;;;6.40;99.90;;;;;;5032450;28;20053;-74
2023/03/26 02:33:31;;;;;;;1999.90;999.90;;;6.30;99.90;;;;;;5015186;28;20031;-74
2023/03/26 02:36:00;;;;;;;1999.90;999.90;;;6.30;99.90;;;;;;5013227;28;20053;-74
2023/03/26 02:38:27;;;;;;;1999.90;999.90;;;6.20;99.90;;;;;;5014363;28;20027;-74
2023/03/26 02:40:54;;;;;;;1999.90;999.90;;;6.10;99.90;;;;;;5014781;28;20030;-74
2023/03/26 02:43:19;;;;;;;1999.90;999.90;;;6.10;99.90;;;;;;5033817;28;20463;-76
2023/03/26 02:45:45;;;;;;;1999.90;999.90;;;6.10;99.90;;;;;;5032445;28;20121;-76
2023/03/26 02:48:11;;;;;;;1999.90;999.90;;;6.10;99.90;;;;;;5019747;28;20030;-76
2023/03/26 02:50:37;;;;;;;1999.90;999.90;;;6.00;99.90;;;;;;5014638;28;20586;-76
2023/03/26 02:53:02;;;;;;;1999.90;999.90;;;6.00;99.90;;;;;;5014930;28;20468;-75
2023/03/26 02:55:28;;;;;;;1999.90;999.90;;;5.90;99.90;;;;;;5034016;28;20765;-76
2023/03/26 02:57:53;;;;;;;1999.90;999.90;;;5.90;99.90;;;;;;5034328;28;20061;-76
2023/03/26 03:00:21;;;;;;;1999.90;999.90;;;6.00;99.90;;;;;;5018534;28;20046;-76
2023/03/26 03:02:48;;;;;;;1999.90;999.90;;;6.00;99.90;;;;;;5014228;28;20863;-76
2023/03/26 03:05:13;;;;;;;1999.90;999.90;;;6.00;99.90;;;;;;5031487;28;20045;-76
2023/03/26 03:07:39;;;;;;;1999.90;999.90;;;6.00;99.90;;;;;;5033555;28;20420;-76
2023/03/26 03:10:08;;;;;;;1999.90;999.90;;;6.00;99.90;;;;;;5034171;28;20049;-76
2023/03/26 03:12:35;;;;;;;1999.90;999.90;;;6.00;99.90;;;;;;5018531;28;20526;-73
2023/03/26 03:15:01;;;;;;;1999.90;999.90;;;6.00;99.90;;;;;;5030944;28;20112;-74
2023/03/26 03:17:26;;;;;;;1999.90;999.90;;;6.00;99.90;;;;;;5033482;28;20622;-73
2023/03/26 03:19:52;;;;;;;1999.90;999.90;;;6.10;99.90;;;;;;5032626;28;20046;-73
2023/03/26 03:22:18;;;;;;;1999.90;999.90;;;6.20;99.90;;;;;;5031648;28;20121;-73
2023/03/26 03:24:44;;;;;;;1999.90;999.90;;;6.30;99.90;;;;;;5018297;28;20042;-73
2023/03/26 03:27:11;;;;;;;1999.90;999.90;;;6.40;99.90;;;;;;5032110;28;20041;-73
2023/03/26 03:29:37;;;;;;;1999.90;999.90;;;6.40;99.90;;;;;;5034898;28;20126;-74
2023/03/26 03:32:03;;;;;;;1999.90;999.90;;;6.50;99.90;;;;;;5023604;28;20058;-74
2023/03/26 03:34:28;;;;;;;1999.90;999.90;;;6.50;99.90;;;;;;5018127;28;20495;-74
2023/03/26 03:36:54;;;;;;;1999.90;999.90;;;6.60;99.90;;;;;;5016841;28;20427;-73
2023/03/26 03:39:19;;;;;;;1999.90;999.90;;;6.70;99.90;;;;;;5017350;28;20038;-74
2023/03/26 03:41:45;;;;;;;1999.90;999.90;;;6.80;99.90;;;;;;5028373;28;20438;-73
2023/03/26 03:44:11;;;;;;;1999.90;999.90;;;6.90;99.90;;;;;;5023046;28;20043;-76
2023/03/26 03:46:36;;;;;;;1999.90;999.90;;;7.10;99.90;;;;;;5032911;28;20121;-76
2023/03/26 03:49:02;;;;;;;1999.90;999.90;;;7.20;99.90;;;;;;5036779;28;20157;-76
2023/03/26 03:51:28;;;;;;;1999.90;999.90;;;7.20;99.90;;;;;;5031552;28;20040;-76
2023/03/26 03:53:54;;;;;;;1999.90;999.90;;;7.20;99.90;;;;;;5019510;28;20077;-76
2023/03/26 03:56:22;;;;;;;1999.90;999.90;;;7.20;99.90;;;;;;5016194;28;20027;-76
2023/03/26 03:58:49;;;;;;;1999.90;999.90;;;7.20;99.90;;;;;;5015758;28;20045;-76
2023/03/26 04:01:16;;;;;;;1999.90;999.90;;;7.20;99.90;;;;;;5017239;28;20042;-76
2023/03/26 04:03:44;;;;;;;1999.90;999.90;;;7.20;99.90;;;;;;5020038;28;20046;-76
2023/03/26 04:06:11;;;;;;;1999.90;999.90;;;7.10;99.90;;;;;;5015216;28;20037;-76
2023/03/26 04:08:37;;;;;;;1999.90;999.90;;;7.10;99.90;;;;;;5015617;28;20069;-76
2023/03/26 04:11:03;;;;;;;1999.90;999.90;;;7.10;99.90;;;;;;5016926;28;20514;-76
2023/03/26 04:13:29;;;;;;;1999.90;999.90;;;7.10;99.90;;;;;;5030770;28;20113;-76
2023/03/26 04:15:55;;;;;;;1999.90;999.90;;;7.00;99.90;;;;;;5034350;28;20040;-76
2023/03/26 04:18:21;;;;;;;1999.90;999.90;;;7.00;99.90;;;;;;5035090;28;20041;-76
2023/03/26 04:20:48;;;;;;;1999.90;999.90;;;7.10;99.90;;;;;;5035162;28;20387;-76
2023/03/26 04:23:15;;;;;;;1999.90;999.90;;;7.10;99.90;;;;;;5025003;28;20046;-76
2023/03/26 04:25:44;;;;;;;1999.90;999.90;;;7.00;99.90;;;;;;5015881;28;20030;-76
2023/03/26 04:28:31;;;;;;;1999.90;999.90;;;7.00;99.90;;;;;;5016486;28;20031;-76
2023/03/26 04:30:59;;;;;;;1999.90;999.90;;;7.00;99.90;;;;;;5023368;28;20045;-76
2023/03/26 04:33:31;;;;;;;1999.90;999.90;;;7.00;99.90;;;;;;5035633;28;20482;-76
2023/03/26 04:36:00;;;;;;;1999.90;999.90;;;7.00;99.90;;;;;;5035415;28;20112;-76
2023/03/26 04:38:26;;;;;;;1999.90;999.90;;;7.00;99.90;;;;;;5036184;28;20073;-75
2023/03/26 04:40:52;;;;;;;1999.90;999.90;;;7.10;99.90;;;;;;5035483;28;20026;-76
2023/03/26 04:43:17;;;;;;;1999.90;999.90;;;7.10;99.90;;;;;;5023192;28;20034;-76
2023/03/26 04:45:44;;;;;;;1999.90;999.90;;;7.20;99.90;;;;;;5014925;28;20038;-76
2023/03/26 04:48:14;;;;;;;1999.90;999.90;;;7.30;99.90;;;;;;5016386;28;20101;-76
2023/03/26 04:50:41;;;;;;;1999.90;999.90;;;7.40;99.90;;;;;;5016219;28;20113;-76
2023/03/26 04:53:12;;;;;;;1999.90;999.90;;;7.50;99.90;;;;;;5016111;28;20065;-76
2023/03/26 04:55:44;;;;;;;1999.90;999.90;;;7.40;99.90;;;;;;5014208;28;20463;-76
2023/03/26 04:58:12;;;;;;;1999.90;999.90;;;7.40;99.90;;;;;;5016259;28;20030;-76
2023/03/26 05:00:39;;;;;;;1999.90;999.90;;;7.40;99.90;;;;;;5033097;28;20482;-76
2023/03/26 05:03:05;;;;;;;1999.90;999.90;;;7.40;99.90;;;;;;5026487;28;20042;-76
2023/03/26 05:05:30;;;;;;;1999.90;999.90;;;7.40;99.90;;;;;;5014215;28;20400;-76
2023/03/26 05:07:56;;;;;;;1999.90;999.90;;;7.30;99.90;;;;;;5016070;28;20034;-75
2023/03/26 05:10:22;;;;;;;1999.90;999.90;;;7.30;99.90;;;;;;5014476;28;20046;-76
2023/03/26 05:12:47;;;;;;;1999.90;999.90;;;7.30;99.90;;;;;;5022546;28;20042;-76
2023/03/26 05:15:14;;;;;;;1999.90;999.90;;;7.30;99.90;;;;;;5035556;28;20041;-76
2023/03/26 05:17:41;;;;;;;1999.90;999.90;;;7.30;99.90;;;;;;5034354;28;20030;-76
2023/03/26 05:20:15;;;;;;;1999.90;999.90;;;7.30;99.90;;;;;;5035637;28;20042;-75
2023/03/26 05:22:42;;;;;;;1999.90;999.90;;;7.30;99.90;;;;;;5028259;28;20038;-76
2023/03/26 05:25:08;;;;;;;1999.90;999.90;;;7.20;99.90;;;;;;5015181;28;20038;-76
2023/03/26 05:27:33;;;;;;;1999.90;999.90;;;7.20;99.90;;;;;;5016201;28;20026;-76
2023/03/26 05:30:00;;;;;;;1999.90;999.90;;;7.20;99.90;;;;;;5014275;28;20381;-76
2023/03/26 05:32:25;;;;;;;1999.90;999.90;;;7.10;99.90;;;;;;5018829;28;20093;-76
2023/03/26 05:34:51;;;;;;;1999.90;999.90;;;7.10;99.90;;;;;;5034348;28;20554;-76
2023/03/26 05:37:18;;;;;;;1999.90;999.90;;;7.10;99.90;;;;;;5034115;28;20068;-76
2023/03/26 05:39:44;;;;;;;1999.90;999.90;;;7.20;99.90;;;;;;5032927;28;20538;-76
2023/03/26 05:42:10;;;;;;;1999.90;999.90;;;7.30;99.90;;;;;;5014079;28;20046;-76
2023/03/26 05:44:36;;;;;;;1999.90;999.90;;;7.40;99.90;;;;;;5015373;28;20041;-73
2023/03/26 05:47:02;;;;;;;1999.90;999.90;;;7.50;99.90;;;;;;5015266;28;20031;-73
2023/03/26 05:49:28;;;;;;;1999.90;999.90;;;7.70;99.90;;;;;;5024883;28;20124;-74
2023/03/26 05:51:53;;;;;;;1999.90;999.90;;;7.80;99.90;;;;;;5033264;28;20034;-74
2023/03/26 05:54:19;;;;;;;1999.90;999.90;;;7.90;99.90;;;;;;5020940;28;20049;-73
2023/03/26 05:56:44;;;;;;;1999.90;999.90;;;8.00;99.90;;;;;;5035174;28;20100;-74
2023/03/26 05:59:13;;;;;;;1999.90;999.90;;;8.00;99.90;;;;;;5034942;28;20396;-73
2023/03/26 06:01:41;;;;;;;1999.90;999.90;;;8.00;99.90;;;;;;5035053;28;20030;-74
2023/03/26 06:04:07;;;;;;;1999.90;999.90;;;8.00;99.90;;;;;;5033009;28;20038;-73
2023/03/26 06:06:32;;;;;;;1999.90;999.90;;;8.10;99.90;;;;;;5033575;28;20030;-73
2023/03/26 06:08:58;;;;;;;1999.90;999.90;;;8.10;99.90;;;;;;5026865;28;20074;-73
2023/03/26 06:11:23;;;;;;;1999.90;999.90;;;8.10;99.90;;;;;;5013641;28;20512;-74
2023/03/26 06:13:49;;;;;;;1999.90;999.90;;;8.20;99.90;;;;;;5026864;28;20053;-73
2023/03/26 06:16:16;;;;;;;1999.90;999.90;;;8.20;99.90;;;;;;5034256;28;20049;-73
2023/03/26 06:18:41;;;;;;;1999.90;999.90;;;8.10;99.90;;;;;;5027085;28;20049;-74
2023/03/26 06:21:07;;;;;;;1999.90;999.90;;;8.20;99.90;;;;;;5014966;28;20040;-73
2023/03/26 06:23:32;;;;;;;1999.90;999.90;;;8.10;99.90;;;;;;5025796;28;20037;-74
2023/03/26 06:25:58;;;;;;;1999.90;999.90;;;8.10;99.90;;;;;;5032896;28;20488;-74
2023/03/26 06:28:24;;;;;;;1999.90;999.90;;;8.10;99.90;;;;;;5034628;28;20042;-73
2023/03/26 06:30:50;;;;;;;1999.90;999.90;;;8.00;99.90;;;;;;5033208;28;20038;-72
2023/03/26 06:33:16;;;;;;;1999.90;999.90;;;7.90;99.90;;;;;;5025806;28;20030;-72
2023/03/26 06:35:44;;;;;;;1999.90;999.90;;;7.90;99.90;;;;;;5013946;28;20034;-72
2023/03/26 06:38:10;;;;;;;1999.90;999.90;;;7.80;99.90;;;;;;5029760;28;20034;-72
2023/03/26 06:40:35;;;;;;;1999.90;999.90;;;7.80;99.90;;;;;;5034639;28;20046;-75
2023/03/26 06:43:01;;;;;;;1999.90;999.90;;;7.90;99.90;;;;;;5026735;28;20392;-75
2023/03/26 06:45:27;;;;;;;1999.90;999.90;;;7.80;99.90;;;;;;5014645;28;20386;-74
2023/03/26 06:47:53;;;;;;;1999.90;999.90;;;7.80;99.90;;;;;;5013654;28;20587;-75
2023/03/26 06:50:19;;;;;;;1999.90;999.90;;;7.80;99.90;;;;;;5013213;28;20045;-75
2023/03/26 06:52:44;;;;;;;1999.90;999.90;;;7.80;99.90;;;;;;5017070;28;20034;-75
2023/03/26 06:55:10;;;;;;;1999.90;999.90;;;7.80;99.90;;;;;;5034188;28;20044;-72
2023/03/26 06:57:36;;;;;;;1999.90;999.90;;;7.80;99.90;;;;;;5034577;28;20030;-72
2023/03/26 07:00:04;;;;;;;1999.90;999.90;;;7.80;99.90;;;;;;5032679;28;20038;-73
2023/03/26 07:02:30;;;;;;;1999.90;999.90;;;7.70;99.90;;;;;;5032572;28;20116;-73
2023/03/26 07:04:56;;;;;;;1999.90;999.90;;;7.80;99.90;;;;;;5016950;28;20109;-73
2023/03/26 07:07:23;;;;;;;1999.90;999.90;;;7.80;99.90;;;;;;5016634;28;20031;-73
2023/03/26 07:09:49;;;;;;;1999.90;999.90;;;7.90;99.90;;;;;;5017942;28;20058;-73
2023/03/26 07:12:15;;;;;;;1999.90;999.90;;;7.90;99.90;;;;;;5028789;28;20034;-73
2023/03/26 07:14:40;;;;;;;1999.90;999.90;;;8.00;99.90;;;;;;5034166;28;20400;-74
2023/03/26 07:17:06;;;;;;;1999.90;999.90;;;8.10;99.90;;;;;;5017908;28;20034;-74
2023/03/26 07:19:32;;;;;;;1999.90;999.90;;;8.20;99.90;;;;;;5018134;28;20038;-75
2023/03/26 07:21:57;;;;;;;1999.90;999.90;;;8.40;99.90;;;;;;5021065;28;20039;-75
2023/03/26 07:24:24;;;;;;;1999.90;999.90;;;8.40;99.90;;;;;;5027831;28;20041;-75
2023/03/26 07:27:08;;;;;;;1999.90;999.90;;;8.50;99.90;;;;;;5038903;28;20037;-74
2023/03/26 07:29:40;;;;;;;1999.90;999.90;;;8.50;99.90;;;;;;5037812;28;20157;-74
2023/03/26 07:32:06;;;;;;;1999.90;999.90;;;8.50;99.90;;;;;;5037526;28;20492;-75
2023/03/26 07:35:09;;;;;;;1999.90;999.90;;;8.60;99.90;;;;;;5036492;28;20112;-75
2023/03/26 07:37:34;;;;;;;1999.90;999.90;;;8.60;99.90;;;;;;5025597;28;20585;-74
2023/03/26 07:40:03;;;;;;;1999.90;999.90;;;8.60;99.90;;;;;;5036152;28;20121;-74
2023/03/26 07:42:55;;;;;;;1999.90;999.90;;;8.70;99.90;;;;;;5037359;28;20054;-75
2023/03/26 07:45:39;;;;;;;1999.90;999.90;;;8.80;99.90;;;;;;5036637;28;20552;-75
2023/03/26 07:48:20;;;;;;;1999.90;999.90;;;8.90;99.90;;;;;;5037386;28;20104;-75
2023/03/26 07:50:46;;;;;;;1999.90;999.90;;;9.00;99.90;;;;;;5037135;28;20453;-76
2023/03/26 07:53:12;;;;;;;1999.90;999.90;;;8.90;99.90;;;;;;5031727;28;20030;-75
2023/03/26 07:55:46;;;;;;;1999.90;999.90;;;8.90;99.90;;;;;;5015742;28;20518;-74
2023/03/26 07:58:20;;;;;;;1999.90;999.90;;;8.80;99.90;;;;;;5017414;28;20062;-75
2023/03/26 08:01:09;;;;;;;1999.90;999.90;;;8.70;99.90;;;;;;5017279;28;20105;-75
2023/03/26 08:03:54;;;;;;;1999.90;999.90;;;8.60;99.90;;;;;;5017391;28;20113;-75
2023/03/26 08:06:45;;;;;;;1999.90;999.90;;;8.50;99.90;;;;;;5036895;28;20500;-75
2023/03/26 08:09:29;;;;;;;1999.90;999.90;;;8.50;99.90;;;;;;5037058;28;20499;-75
2023/03/26 08:12:10;;;;;;;1999.90;999.90;;;8.40;99.90;;;;;;5035584;28;20112;-75
2023/03/26 08:14:44;;;;;;;1999.90;999.90;;;8.20;99.90;;;;;;5031580;28;20085;-75
2023/03/26 08:17:22;;;;;;;1999.90;999.90;;;8.00;99.90;;;;;;5016551;28;20041;-73
2023/03/26 08:20:27;;;;;;;1999.90;999.90;;;7.90;99.90;;;;;;5016696;28;20041;-75
2023/03/26 08:23:24;;;;;;;1999.90;999.90;;;7.80;99.90;;;;;;5032380;28;20030;-73
2023/03/26 08:26:05;;;;;;;1999.90;999.90;;;7.80;99.90;;;;;;5019649;28;20069;-75
2023/03/26 08:29:10;;;;;;;1999.90;999.90;;;7.80;99.90;;;;;;5015855;28;20034;-75
2023/03/26 08:31:38;;;;;;;1999.90;999.90;;;7.80;99.90;;;;;;4996857;28;20050;-73
2023/03/26 08:34:05;;;;;;;1999.90;999.90;;;7.70;99.90;;;;;;4997796;28;20031;-73
2023/03/26 08:36:31;;;;;;;1999.90;999.90;;;7.70;99.90;;;;;;4996138;28;20045;-75
2023/03/26 08:38:58;;;;;;;1999.90;999.90;;;7.70;99.90;;;;;;4996900;28;20098;-73
2023/03/26 08:41:39;;;;;;;1999.90;999.90;;;7.80;99.90;;;;;;4997402;28;20031;-73
2023/03/26 08:44:46;;;;;;;1999.90;999.90;;;7.90;99.90;;;;;;4996035;28;20042;-79
2023/03/26 08:48:01;;;;;;;1999.90;999.90;;;7.80;99.90;;;;;;4995364;28;20027;-75
2023/03/26 08:51:02;;;;;;;1999.90;999.90;;;7.70;99.90;;;;;;5026241;28;20053;-76
2023/03/26 08:53:39;;;;;;;1999.90;999.90;;;7.70;99.90;;;;;;5036173;28;20033;-74
2023/03/26 08:56:22;;;;;;;1999.90;999.90;;;7.60;99.90;;;;;;5019792;28;20046;-75
2023/03/26 08:59:20;;;;;;;1999.90;999.90;;;7.60;99.90;;;;;;5016656;28;20042;-74
2023/03/26 09:02:14;;;;;;;1999.90;999.90;;;7.60;99.90;;;;;;5016638;28;20030;-75
2023/03/26 09:05:04;;;;;;;1999.90;999.90;;;7.70;99.90;;;;;;5031164;28;20038;-75
2023/03/26 09:08:07;;;;;;;1999.90;999.90;;;7.70;99.90;;;;;;5026961;28;20038;-75
2023/03/26 09:10:50;;;;;;;1999.90;999.90;;;7.70;99.90;;;;;;5015256;28;20045;-75
2023/03/26 09:13:41;;;;;;;1999.90;999.90;;;7.80;99.90;;;;;;5016008;28;20022;-75
2023/03/26 09:16:25;;;;;;;1999.90;999.90;;;7.80;99.90;;;;;;5015652;28;20070;-76
2023/03/26 09:19:09;;;;;;;1999.90;999.90;;;7.80;99.90;;;;;;5019138;28;20053;-74
2023/03/26 09:22:12;;;;;;;1999.90;999.90;;;7.80;99.90;;;;;;5016061;28;20034;-75
2023/03/26 09:25:05;;;;;;;1999.90;999.90;;;7.90;99.90;;;;;;5022863;28;20046;-75
2023/03/26 09:27:53;;;;;;;1999.90;999.90;;;7.90;99.90;;;;;;5034013;28;20518;-75
2023/03/26 09:30:45;;;;;;;1999.90;999.90;;;7.90;99.90;;;;;;5033382;28;20049;-74
2023/03/26 09:33:33;;;;;;;1999.90;999.90;;;8.10;99.90;;;;;;5034165;28;20056;-75
2023/03/26 09:36:21;;;;;;;1999.90;999.90;;;7.90;99.90;;;;;;5015102;28;20049;-73
2023/03/26 09:38:55;;;;;;;1999.90;999.90;;;7.80;99.90;;;;;;5015747;28;20042;-74
2023/03/26 09:41:30;;;;;;;1999.90;999.90;;;7.80;99.90;;;;;;5015871;28;20043;-73
2023/03/26 09:44:15;;;;;;;1999.90;999.90;;;7.90;99.90;;;;;;5033147;28;20530;-74
2023/03/26 09:47:11;;;;;;;1999.90;999.90;;;8.20;99.90;;;;;;5035495;28;20030;-75
2023/03/26 09:50:09;;;;;;;1999.90;999.90;;;8.60;99.90;;;;;;5035624;28;20049;-75
2023/03/26 09:52:44;;;;;;;1999.90;999.90;;;9.30;99.90;;;;;;5035631;28;20030;-74
2023/03/26 09:55:31;;;;;;;1999.90;999.90;;;9.90;99.90;;;;;;5023488;28;20038;-74
2023/03/26 09:58:25;;;;;;;1999.90;999.90;;;10.00;99.90;;;;;;5015469;28;20061;-75
2023/03/26 10:01:09;;;;;;;1999.90;999.90;;;10.30;99.90;;;;;;5015682;28;20043;-75
2023/03/26 10:03:47;;;;;;;1999.90;999.90;;;10.70;99.90;;;;;;5015491;28;20030;-75
2023/03/26 10:06:36;;;;;;;1999.90;999.90;;;10.90;99.90;;;;;;5015006;28;20034;-75
2023/03/26 10:09:19;;;;;;;1999.90;999.90;;;10.90;99.90;;;;;;5015556;28;20026;-75
2023/03/26 10:12:27;;;;;;;1999.90;999.90;;;11.00;99.90;;;;;;5015452;28;20042;-75
2023/03/26 10:15:02;;;;;;;1999.90;999.90;;;10.90;99.90;;;;;;5013452;28;20062;-75
2023/03/26 10:17:54;;;;;;;1999.90;999.90;;;10.60;99.90;;;;;;5015445;28;20030;-75
2023/03/26 10:20:41;;;;;;;1999.90;999.90;;;10.10;99.90;;;;;;5015262;28;20065;-74
2023/03/26 10:23:17;;;;;;;1999.90;999.90;;;9.90;99.90;;;;;;5015337;28;20042;-76
2023/03/26 10:26:00;;;;;;;1999.90;999.90;;;9.60;99.90;;;;;;5015056;28;20034;-74
2023/03/26 10:28:41;;;;;;;1999.90;999.90;;;9.30;99.90;;;;;;5015257;28;20035;-74
2023/03/26 10:31:30;;;;;;;1999.90;999.90;;;9.00;99.90;;;;;;5015549;28;20038;-74
2023/03/26 10:34:10;;;;;;;1999.90;999.90;;;8.80;99.90;;;;;;5011529;28;20042;-74
2023/03/26 10:36:43;;;;;;;1999.90;999.90;;;8.80;99.90;;;;;;5015375;28;20100;-74
2023/03/26 10:39:31;;;;;;;1999.90;999.90;;;8.90;99.90;;;;;;5014389;28;20038;-74
2023/03/26 10:42:09;;;;;;;1999.90;999.90;;;8.90;99.90;;;;;;5015316;28;20484;-75
2023/03/26 10:45:06;;;;;;;1999.90;999.90;;;8.90;99.90;;;;;;5014448;28;20049;-75
2023/03/26 10:47:50;;;;;;;1999.90;999.90;;;9.00;99.90;;;;;;5014760;28;20061;-74
2023/03/26 10:50:19;;;;;;;1999.90;999.90;;;9.10;99.90;;;;;;5015190;28;20066;-75
2023/03/26 10:53:09;;;;;;;1999.90;999.90;;;9.10;99.90;;;;;;5015429;28;20042;-75
2023/03/26 10:55:45;;;;;;;1999.90;999.90;;;9.20;99.90;;;;;;5015348;28;20105;-75
2023/03/26 10:58:25;;;;;;;1999.90;999.90;;;9.40;99.90;;;;;;5015482;28;20026;-75
2023/03/26 11:01:04;;;;;;;1999.90;999.90;;;9.60;99.90;;;;;;4993681;28;20042;-75
2023/03/26 11:03:42;;;;;;;1999.90;999.90;;;9.40;99.90;;;;;;4995275;28;20031;-75
2023/03/26 11:06:29;;;;;;;1999.90;999.90;;;9.40;99.90;;;;;;4993271;28;20038;-74
2023/03/26 11:09:06;;;;;;;1999.90;999.90;;;9.40;99.90;;;;;;4995011;28;20031;-74
2023/03/26 11:11:45;;;;;;;1999.90;999.90;;;9.70;99.90;;;;;;4995132;28;20501;-75
2023/03/26 11:14:33;;;;;;;1999.90;999.90;;;10.00;99.90;;;;;;5000299;28;20034;-74
2023/03/26 11:17:26;;;;;;;1999.90;999.90;;;10.10;99.90;;;;;;5012939;28;20110;-74
2023/03/26 11:20:01;;;;;;;1999.90;999.90;;;10.10;99.90;;;;;;5014463;28;20043;-74
2023/03/26 11:23:01;;;;;;;1999.90;999.90;;;10.10;99.90;;;;;;5014495;28;20040;-74
2023/03/26 11:25:58;;;;;;;1999.90;999.90;;;10.20;99.90;;;;;;5013953;28;20504;-74
2023/03/26 11:28:34;;;;;;;1999.90;999.90;;;10.50;99.90;;;;;;5027420;28;20042;-76
2023/03/26 11:31:22;;;;;;;1999.90;999.90;;;10.70;99.90;;;;;;5033190;28;20496;-74
2023/03/26 11:33:53;;;;;;;1999.90;999.90;;;11.10;99.90;;;;;;5032194;28;20045;-75
2023/03/26 11:36:24;;;;;;;1999.90;999.90;;;11.50;99.90;;;;;;5027849;28;20492;-74
2023/03/26 11:38:52;;;;;;;1999.90;999.90;;;11.70;99.90;;;;;;5022060;28;20034;-75
2023/03/26 11:41:22;;;;;;;1999.90;999.90;;;11.60;99.90;;;;;;5032492;28;20034;-76
2023/03/26 11:43:52;;;;;;;1999.90;999.90;;;11.90;99.90;;;;;;5033566;28;20033;-76
2023/03/26 11:46:21;;;;;;;1999.90;999.90;;;12.10;99.90;;;;;;5023960;28;20034;-75
2023/03/26 11:48:56;;;;;;;1999.90;999.90;;;12.30;99.90;;;;;;5032002;28;20030;-76
2023/03/26 11:51:26;;;;;;;1999.90;999.90;;;12.30;99.90;;;;;;5034285;28;20045;-75
2023/03/26 11:53:53;;;;;;;1999.90;999.90;;;12.60;99.90;;;;;;5021363;28;20114;-76
2023/03/26 11:56:43;;;;;;;1999.90;999.90;;;13.00;99.90;;;;;;5017125;28;20075;-74
2023/03/26 11:59:34;;;;;;;1999.90;999.90;;;13.60;99.90;;;;;;5027078;28;20041;-74
2023/03/26 12:02:11;;;;;;;1999.90;999.90;;;14.00;99.90;;;;;;5037337;28;20453;-74
2023/03/26 12:04:39;;;;;;;1999.90;999.90;;;14.20;99.90;;;;;;5036819;28;20044;-75
2023/03/26 12:07:21;;;;;;;1999.90;999.90;;;14.50;99.90;;;;;;5032883;28;20034;-75
2023/03/26 12:09:55;;;;;;;1999.90;999.90;;;14.00;99.90;;;;;;5037740;28;20038;-74
2023/03/26 12:12:25;;;;;;;1999.90;999.90;;;13.60;99.90;;;;;;5036847;28;20065;-75
2023/03/26 12:14:50;;;;;;;1999.90;999.90;;;13.60;99.90;;;;;;5035029;28;20530;-74
2023/03/26 12:17:35;;;;;;;1999.90;999.90;;;13.70;99.90;;;;;;5021412;28;20043;-74
2023/03/26 12:20:21;;;;;;;1999.90;999.90;;;14.10;99.90;;;;;;5016926;28;20476;-74
2023/03/26 12:22:47;;;;;;;1999.90;999.90;;;14.20;99.90;;;;;;5017550;28;20832;-74
2023/03/26 12:25:15;;;;;;;1999.90;999.90;;;13.90;99.90;;;;;;5015179;28;20080;-75
2023/03/26 12:27:46;;;;;;;1999.90;999.90;;;13.60;99.90;;;;;;5035852;28;20121;-74
2023/03/26 12:30:20;;;;;;;1999.90;999.90;;;13.40;99.90;;;;;;5036369;28;20515;-75
2023/03/26 12:32:48;;;;;;;1999.90;999.90;;;13.40;99.90;;;;;;4995773;28;20035;-73
2023/03/26 12:35:28;;;;;;;1999.90;999.90;;;13.30;99.90;;;;;;4996419;28;20532;-75
2023/03/26 12:38:11;;;;;;;1999.90;999.90;;;13.40;99.90;;;;;;4995502;28;20042;-75